Kolpino, Russia
Current Conditions -  °F | °C
As of 10:30 PM on Wednesday 17 Dec 2014 (Local Time) from ULLI Reporting Station
Broken Clouds Broken Clouds  
Wind Chill: 30°   Ceiling: 3000
Heat Index: 34°   Visibility: 6mi
Dew Point: 30°   Wind: 4mph
Humidity: 87%   Direction: 240°WSW
Pressure: 29.38"   Gusts: NA
Location:  59.75°N, 30.6°E
Report Text: ULLI 171930Z 24002MPS 150V320 9999 BKN030 01/M01 Q0995 2829005078////// NOSIG
Loading
Personal Weather Stations






























Interactive Weather Map New forecast layout! Learn more

10-Day Weather Forecast

Advertisements
Track Severe Weather on mobile